Orange, TX (77630)

1:59 PM CDT on April 30, 2017 (GMT -0500)
Northmont Subdivision | | Change Station

Elev 13 ft 30.12 °N, 93.76 °W | Updated 9 seconds ago

Overcast
Overcast
71.5 °F
Feels Like 76 °F
N
1.0
Wind Variable Wind from NW

Today
High -- | Low -- °F
--% Chance of Precip.
Yesterday
High -- | Low -- °F
Precip. -- in
Pressure 29.93 in
Visibility 10.0 miles
Clouds Overcast 10000 ft
Heat Index 76 °F
Dew Point 56 °F
Humidity 58%
Rainfall 0.70 in
Snow Depth Not available.
6:32 AM 7:52 PM
Waxing Crescent, 25% visible
METAR KORG 301835Z AUTO 31005KT 10SM OVC100 19/12 A2993 RMK AO2 T01890121
Pressure 29.93 in
Visibility 10.0 miles
Clouds Overcast 10000 ft
Heat Index 76 °F
Dew Point 56 °F
Humidity 58%
Rainfall 0.70 in
Snow Depth Not available.
6:32 AM 7:52 PM
Waxing Crescent, 25% visible
METAR KORG 301835Z AUTO 31005KT 10SM OVC100 19/12 A2993 RMK AO2 T01890121

Get Severe Weather Alerts

Thanks for signing up!

Be on the lookout for a verification email in your inbox.

You'll start receiving the daily forecast at 8 AM.

×

10-Day Weather Forecast

Almanac

Astronomy

Apr. 30, 2017 Rise Set
Actual Time
Civil Twilight
Nautical Twilight
Astronomical Twilight
Moon
Length of Visible Light
Length of Day
Tomorrow will be .
, % of the Moon is Illuminated

Today's Extremes

State Highs State Lows

Community

WunderPhotos

WunderBlog® & News

Nearby

Air Quality

  Air Quality AQ Index Pollutant
Not available.

Snow Depth

Station Depth Elevation

Earthquake Activity

City Distance Mag. Time & Date
Minimum magnitude displayed is 2.5.

Coastal Water Temperatures

Place Temperature

Stations

Nearby Weather Stations

Station Location Temp. Windchill Dew Point Humidity Wind Precip. Elev Updated Type
                   

Watches & Warnings

There are currently no watches in effect.